createdAt,value
2023-03-30T04:52:31.533Z,30.80
2023-03-30T04:55:11.776Z,29.13
2023-03-30T04:57:56.886Z,41.57
2023-03-30T05:00:52.195Z,32.90
2023-03-30T05:03:36.224Z,28.00
2023-03-30T05:06:17.370Z,35.20
2023-03-30T05:08:54.118Z,30.20
2023-03-30T05:11:41.378Z,32.80
2023-03-30T05:14:28.570Z,28.73
2023-03-30T05:17:18.013Z,33.27
2023-03-30T05:20:08.677Z,31.07
2023-03-30T05:22:58.369Z,29.33
2023-03-30T05:25:55.642Z,29.23
2023-03-30T05:28:44.985Z,30.77
2023-03-30T05:31:35.014Z,33.73
2023-03-30T05:34:20.563Z,34.93
2023-03-30T05:36:59.516Z,35.70
2023-03-30T05:39:48.349Z,32.07
2023-03-30T05:42:25.183Z,38.47
2023-03-30T05:45:00.636Z,31.47
2023-03-30T05:47:45.895Z,32.83
2023-03-30T05:50:26.871Z,32.53
2023-03-30T05:53:03.168Z,33.57
2023-03-30T05:55:46.717Z,39.63
2023-03-30T05:58:49.500Z,36.67
2023-03-30T06:01:38.478Z,28.97
2023-03-30T06:04:06.279Z,32.13
2023-03-30T06:06:35.018Z,34.90
2023-03-30T06:09:02.947Z,36.00
2023-03-30T06:11:31.879Z,29.77
2023-03-30T06:14:18.384Z,33.97
2023-03-30T06:17:01.723Z,28.33
2023-03-30T06:19:28.826Z,35.90
2023-03-30T06:21:55.875Z,32.87
2023-03-30T06:24:34.050Z,35.17
2023-03-30T06:27:03.626Z,32.20
2023-03-30T06:29:31.424Z,33.63
2023-03-30T06:31:59.519Z,31.77
2023-03-30T06:34:53.196Z,36.67
2023-03-30T06:37:23.215Z,34.53
2023-03-30T06:39:50.913Z,32.07
2023-03-30T06:42:18.070Z,35.00
2023-03-30T06:45:08.760Z,32.17
2023-03-30T06:47:38.053Z,33.47
2023-03-30T06:50:05.779Z,33.50
2023-03-30T06:52:52.963Z,42.80
2023-03-30T06:55:21.901Z,32.57
2023-03-30T06:57:48.978Z,33.83
2023-03-30T07:00:18.482Z,33.57
2023-03-30T07:03:20.880Z,34.63
2023-03-30T07:05:58.785Z,29.70
2023-03-30T07:08:35.949Z,31.63
2023-03-30T07:11:05.338Z,32.63
2023-03-30T07:13:34.452Z,35.43
2023-03-30T07:16:01.777Z,29.70
2023-03-30T07:18:31.623Z,30.83
2023-03-30T07:20:59.598Z,35.80
2023-03-30T07:23:32.837Z,33.27
2023-03-30T07:26:00.107Z,32.10
2023-03-30T07:28:56.893Z,30.97
2023-03-30T07:31:25.402Z,33.60
2023-03-30T07:33:52.726Z,31.30
2023-03-30T07:36:24.784Z,43.33
2023-03-30T07:38:52.824Z,33.23
2023-03-30T07:41:20.115Z,30.47
2023-03-30T07:43:51.515Z,34.23
2023-03-30T07:46:18.533Z,29.87
2023-03-30T07:48:49.243Z,30.13
2023-03-30T07:51:16.999Z,30.53
2023-03-30T07:53:52.669Z,31.43
2023-03-30T07:56:28.941Z,33.10
2023-03-30T07:59:01.657Z,32.00
2023-03-30T08:01:34.045Z,29.83
2023-03-30T08:04:13.710Z,35.57
2023-03-30T08:06:41.714Z,37.63
2023-03-30T08:09:09.291Z,30.20
2023-03-30T08:11:36.485Z,39.87
2023-03-30T08:14:04.158Z,35.20
2023-03-30T08:16:31.631Z,31.17
2023-03-30T08:18:58.590Z,30.20
2023-03-30T08:21:26.378Z,30.70
2023-03-30T08:23:56.210Z,30.50
2023-03-30T08:26:23.528Z,28.27
2023-03-30T08:28:50.480Z,27.50
2023-03-30T08:31:18.542Z,29.47
2023-03-30T08:33:45.648Z,29.80
2023-03-30T08:36:12.946Z,30.37
2023-03-30T08:38:40.612Z,27.50
2023-03-30T08:41:47.095Z,32.43
2023-03-30T08:44:25.987Z,37.80
2023-03-30T08:46:54.482Z,33.23
2023-03-30T08:49:22.381Z,33.57
2023-03-30T08:51:52.897Z,29.57
2023-03-30T08:54:22.738Z,33.00
2023-03-30T08:57:05.726Z,30.60
2023-03-30T08:59:56.482Z,32.90
2023-03-30T09:02:34.293Z,30.13
2023-03-30T09:05:19.779Z,32.77
2023-03-30T09:08:02.337Z,32.87
2023-03-30T09:10:34.920Z,31.20
2023-03-30T09:13:04.520Z,30.27
2023-03-30T09:15:42.980Z,32.23
2023-03-30T09:18:25.526Z,28.70
2023-03-30T09:20:55.660Z,29.80
2023-03-30T09:23:22.645Z,31.40
2023-03-30T09:26:01.326Z,34.87
2023-03-30T09:28:56.244Z,28.07
2023-03-30T09:31:36.748Z,28.90
2023-03-30T09:34:09.253Z,30.43
2023-03-30T09:36:43.095Z,27.77
2023-03-30T09:39:21.026Z,31.37
2023-03-30T09:42:02.020Z,28.90
2023-03-30T09:44:37.365Z,25.90
2023-03-30T09:47:25.333Z,28.80
2023-03-30T09:50:00.349Z,30.63
2023-03-30T09:52:30.814Z,28.10
2023-03-30T09:55:21.284Z,27.83
2023-03-30T09:57:52.490Z,32.57
2023-03-30T10:00:34.146Z,27.70
2023-03-30T10:03:04.465Z,26.77
2023-03-30T10:05:33.839Z,35.67
2023-03-30T10:08:06.522Z,27.47
2023-03-30T10:10:40.230Z,30.43
2023-03-30T10:13:17.367Z,25.23
2023-03-30T10:15:48.641Z,33.37
2023-03-30T10:18:18.717Z,28.60
2023-03-30T10:21:17.841Z,30.87
2023-03-30T10:23:59.037Z,31.87
2023-03-30T10:26:30.609Z,26.27
2023-03-30T10:29:02.222Z,25.43
2023-03-30T10:31:29.477Z,24.47
2023-03-30T10:33:59.579Z,21.87
2023-03-30T10:36:32.854Z,25.17
2023-03-30T10:39:17.006Z,24.50
2023-03-30T10:41:46.669Z,27.27
2023-03-30T10:44:25.031Z,23.47
2023-03-30T10:47:00.893Z,20.77
2023-03-30T10:49:58.599Z,23.40
2023-03-30T10:52:31.810Z,26.50
2023-03-30T10:55:22.179Z,24.60
2023-03-30T10:58:21.452Z,25.60
2023-03-30T11:01:09.276Z,24.87
2023-03-30T11:03:44.701Z,25.17
2023-03-30T11:06:23.121Z,21.38
2023-03-30T11:08:52.986Z,25.58
2023-03-30T11:11:23.680Z,22.15
2023-03-30T11:14:01.955Z,24.70
2023-03-30T11:16:38.208Z,21.65
2023-03-30T11:19:21.016Z,23.83
2023-03-30T11:21:56.848Z,20.50
2023-03-30T11:24:27.134Z,22.45
2023-03-30T11:27:07.052Z,23.55
2023-03-30T11:29:42.817Z,19.17
2023-03-30T11:32:26.202Z,22.25
2023-03-30T11:35:14.248Z,20.48
2023-03-30T11:38:08.348Z,21.05
2023-03-30T11:40:51.912Z,21.98
2023-03-30T11:43:20.540Z,22.75
2023-03-30T11:46:03.878Z,21.90
2023-03-30T11:48:40.884Z,21.15
2023-03-30T11:51:26.317Z,20.75
2023-03-30T11:54:23.759Z,28.38
2023-03-30T11:57:18.037Z,24.70
2023-03-30T12:00:12.943Z,20.90
2023-03-30T12:03:05.649Z,19.48
2023-03-30T12:05:39.678Z,21.23
2023-03-30T12:08:48.810Z,21.00
2023-03-30T12:11:33.252Z,20.33
2023-03-30T12:14:01.251Z,21.77
2023-03-30T12:16:46.861Z,23.13
2023-03-30T12:19:19.214Z,21.60
2023-03-30T12:22:23.192Z,20.35
2023-03-30T12:25:00.623Z,21.25
2023-03-30T12:27:31.445Z,18.92
2023-03-30T12:30:13.433Z,18.17
2023-03-30T12:32:59.672Z,22.80
2023-03-30T12:35:53.460Z,17.38
2023-03-30T12:38:26.262Z,18.83
2023-03-30T12:41:05.703Z,20.75
2023-03-30T12:44:03.017Z,20.13
2023-03-30T12:46:59.365Z,19.58
2023-03-30T12:49:33.202Z,20.10
2023-03-30T12:52:15.413Z,20.67
2023-03-30T12:55:12.775Z,20.23
2023-03-30T12:58:06.693Z,19.55
2023-03-30T13:00:58.251Z,16.33
2023-03-30T13:03:50.262Z,19.17
2023-03-30T13:06:39.188Z,18.27
2023-03-30T13:09:15.418Z,16.00
2023-03-30T13:11:50.266Z,17.95
2023-03-30T13:14:27.858Z,20.58
2023-03-30T13:16:55.307Z,16.33
2023-03-30T13:19:38.043Z,18.35
2023-03-30T13:22:11.630Z,15.90
2023-03-30T13:24:41.961Z,19.58
2023-03-30T13:27:18.317Z,19.52
2023-03-30T13:30:03.102Z,16.25
2023-03-30T13:33:03.784Z,20.10
2023-03-30T13:35:46.837Z,17.75
2023-03-30T13:38:51.240Z,19.45
2023-03-30T13:41:28.738Z,20.27
2023-03-30T13:44:41.127Z,25.73
2023-03-30T13:47:37.053Z,21.77
2023-03-30T13:50:14.025Z,19.73
2023-03-30T13:52:44.713Z,20.13
2023-03-30T13:55:35.662Z,18.25
2023-03-30T13:58:04.796Z,21.67
2023-03-30T14:00:47.205Z,17.58
2023-03-30T14:03:31.818Z,22.77
2023-03-30T14:06:03.001Z,20.42
2023-03-30T14:08:58.635Z,22.67
2023-03-30T14:11:38.092Z,21.60
2023-03-30T14:14:06.825Z,18.30
2023-03-30T14:16:39.157Z,18.90
2023-03-30T14:19:12.966Z,20.75
2023-03-30T14:21:44.720Z,19.90
2023-03-30T14:24:16.771Z,23.17
2023-03-30T14:26:46.668Z,18.77
2023-03-30T14:29:30.391Z,22.23
2023-03-30T14:34:34.135Z,16.42
2023-03-30T14:37:07.208Z,13.43
2023-03-30T14:39:40.646Z,15.10
2023-03-30T14:42:17.669Z,11.50
2023-03-30T14:44:47.521Z,13.40
2023-03-30T14:47:20.562Z,11.45
2023-03-30T14:49:49.087Z,13.25
2023-03-30T14:52:20.697Z,13.43
2023-03-30T14:55:05.237Z,11.30
2023-03-30T14:57:38.273Z,13.43
2023-03-30T15:00:31.549Z,13.00
2023-03-30T15:03:00.053Z,14.75
2023-03-30T15:05:35.110Z,13.07
2023-03-30T15:08:06.157Z,11.43
2023-03-30T15:10:45.363Z,10.43
2023-03-30T15:13:26.113Z,15.10
2023-03-30T15:15:54.661Z,13.60
2023-03-30T15:18:26.474Z,14.23
2023-03-30T15:20:55.035Z,20.00
2023-03-30T15:23:23.484Z,15.50
2023-03-30T15:25:53.053Z,14.88
2023-03-30T15:28:20.730Z,18.20
2023-03-30T15:30:52.822Z,20.77
2023-03-30T15:33:24.541Z,16.25
2023-03-30T15:35:53.502Z,16.85
2023-03-30T15:38:31.270Z,12.77
2023-03-30T15:40:59.538Z,16.37
2023-03-30T15:43:30.188Z,16.08
2023-03-30T15:46:02.254Z,14.85
2023-03-30T15:48:45.607Z,15.50
2023-03-30T15:51:25.003Z,16.10
2023-03-30T15:54:04.096Z,15.27
2023-03-30T15:56:37.094Z,16.20
2023-03-30T15:59:04.862Z,12.95
2023-03-30T16:02:01.016Z,16.48
2023-03-30T16:04:31.815Z,13.52
2023-03-30T16:06:59.912Z,13.52
2023-03-30T16:09:27.337Z,14.23
2023-03-30T16:11:54.392Z,16.13
2023-03-30T16:14:22.171Z,14.13
2023-03-30T16:16:50.214Z,14.10
2023-03-30T16:19:20.213Z,14.67
2023-03-30T16:21:47.518Z,17.17
2023-03-30T16:24:15.311Z,13.70
2023-03-30T16:26:43.673Z,14.80
2023-03-30T16:29:24.831Z,16.93
2023-03-30T16:31:52.860Z,17.57
2023-03-30T16:34:20.522Z,19.05
2023-03-30T16:36:48.342Z,13.43
2023-03-30T16:39:21.715Z,17.35
2023-03-30T16:41:49.705Z,17.50
2023-03-30T16:44:18.827Z,17.27
2023-03-30T16:46:48.412Z,15.37
2023-03-30T16:49:23.543Z,15.90
2023-03-30T16:51:57.805Z,18.73
2023-03-30T16:54:32.558Z,19.57
2023-03-30T16:57:02.985Z,16.13
2023-03-30T16:59:31.407Z,16.90
2023-03-30T17:02:02.532Z,19.10
2023-03-30T17:04:30.945Z,20.73
2023-03-30T17:06:58.078Z,18.90
2023-03-30T17:09:27.878Z,18.97
2023-03-30T17:11:54.809Z,18.10
2023-03-30T17:14:23.410Z,18.35
2023-03-30T17:16:50.485Z,17.07
2023-03-30T17:19:18.737Z,19.20
2023-03-30T17:21:46.244Z,17.33
2023-03-30T17:24:31.550Z,19.60
2023-03-30T17:27:00.834Z,20.30
2023-03-30T17:29:29.161Z,18.10
2023-03-30T17:31:56.646Z,20.03
2023-03-30T17:34:23.571Z,19.93
2023-03-30T17:36:50.428Z,20.23
2023-03-30T17:39:17.536Z,21.57
2023-03-30T17:41:44.583Z,21.20
2023-03-30T17:44:11.500Z,19.80
2023-03-30T17:46:39.213Z,19.10
2023-03-30T17:49:15.168Z,24.97
2023-03-30T17:51:42.038Z,21.47
2023-03-30T17:54:08.973Z,22.67
2023-03-30T17:56:38.370Z,23.13
2023-03-30T17:59:12.201Z,33.33
2023-03-30T18:01:40.018Z,23.33
2023-03-30T18:04:07.148Z,20.60
2023-03-30T18:06:38.907Z,23.47
2023-03-30T18:09:14.194Z,20.57
2023-03-30T18:11:45.646Z,22.77
2023-03-30T18:14:12.734Z,25.57
2023-03-30T18:16:43.323Z,24.07
2023-03-30T18:19:11.781Z,24.97
2023-03-30T18:21:38.755Z,23.30
2023-03-30T18:24:07.799Z,23.10
2023-03-30T18:26:35.614Z,23.80
2023-03-30T18:29:03.342Z,21.67
2023-03-30T18:31:32.043Z,25.07
2023-03-30T18:33:59.008Z,24.67
2023-03-30T18:36:25.968Z,25.97
2023-03-30T18:38:55.447Z,26.43
2023-03-30T18:41:22.466Z,24.40
2023-03-30T18:43:49.362Z,22.53
2023-03-30T18:46:18.162Z,23.87
2023-03-30T18:48:48.658Z,22.83
2023-03-30T18:51:16.770Z,23.77
2023-03-30T18:53:44.296Z,24.13
2023-03-30T18:56:12.639Z,26.63
2023-03-30T18:58:42.843Z,24.17
2023-03-30T19:01:12.827Z,27.47
2023-03-30T19:03:40.712Z,25.03
2023-03-30T19:06:17.394Z,29.80
2023-03-30T19:08:46.060Z,26.13
2023-03-30T19:11:21.653Z,22.98
2023-03-30T19:13:48.775Z,25.57
2023-03-30T19:16:18.934Z,28.20
2023-03-30T19:18:45.987Z,26.57
2023-03-30T19:21:17.690Z,25.50
2023-03-30T19:23:44.970Z,24.43
2023-03-30T19:26:12.752Z,25.93
2023-03-30T19:28:44.676Z,27.83
2023-03-30T19:31:16.493Z,25.10
2023-03-30T19:33:45.108Z,25.33
2023-03-30T19:36:13.311Z,26.70
2023-03-30T19:38:41.822Z,25.10
2023-03-30T19:41:08.957Z,25.17
2023-03-30T19:43:36.576Z,25.30
2023-03-30T19:46:07.280Z,27.93
2023-03-30T19:48:34.861Z,29.23
2023-03-30T19:51:02.430Z,27.17
2023-03-30T19:53:29.575Z,26.30
2023-03-30T19:55:56.617Z,28.37
2023-03-30T19:58:24.578Z,30.13
2023-03-30T20:00:55.595Z,28.17
2023-03-30T20:03:22.733Z,29.37
2023-03-30T20:05:52.432Z,26.40
2023-03-30T20:08:24.588Z,31.17
2023-03-30T20:10:57.081Z,27.87
2023-03-30T20:13:27.833Z,30.87
2023-03-30T20:15:56.278Z,27.37
2023-03-30T20:18:23.629Z,29.73
2023-03-30T20:20:50.866Z,32.93
2023-03-30T20:23:17.954Z,31.53
2023-03-30T20:25:50.654Z,29.70
2023-03-30T20:28:17.908Z,30.27
2023-03-30T20:30:45.102Z,34.70
2023-03-30T20:33:12.488Z,36.97
2023-03-30T20:35:40.246Z,32.80
2023-03-30T20:38:08.481Z,33.63
2023-03-30T20:40:43.505Z,34.43
2023-03-30T20:43:10.720Z,35.53
2023-03-30T20:45:46.200Z,33.33
2023-03-30T20:48:26.473Z,34.90
2023-03-30T20:50:54.966Z,33.07
2023-03-30T20:53:24.738Z,33.43
2023-03-30T20:55:51.760Z,32.77
2023-03-30T20:58:19.739Z,32.03
2023-03-30T21:00:52.082Z,30.53
2023-03-30T21:03:20.761Z,32.70
2023-03-30T21:05:59.956Z,33.73
2023-03-30T21:08:27.036Z,37.17
2023-03-30T21:10:54.001Z,34.90
2023-03-30T21:13:21.863Z,35.00
2023-03-30T21:16:01.108Z,33.40
2023-03-30T21:18:28.696Z,34.20
2023-03-30T21:20:57.670Z,35.63
2023-03-30T21:23:26.614Z,32.20
2023-03-30T21:25:58.322Z,38.67
2023-03-30T21:28:29.933Z,35.83
2023-03-30T21:31:01.742Z,35.23
2023-03-30T21:33:33.918Z,34.33
2023-03-30T21:36:01.117Z,34.07
2023-03-30T21:38:30.429Z,35.33
2023-03-30T21:41:00.129Z,34.87
2023-03-30T21:43:29.813Z,33.33
